Aérodrome :
LOGIN :

S'inscrire | Disclaimer

   EN    FR    IT 

 










Légende :    VFR   VFR Marginal   IFR   IFR Intensif   IFR Très Intensif
Visi : 
Plafond : 
>= 8 km
>= 3000ft
5 à 8 km
1000 à 3000 ft
1500m à 5 km
500 à 1000 ft
800 à 1500m
200 à 500 ft
< 800m
< 200 ft
Symboles :   Orages  Brouillard  Fortes neiges  Fortes précipitations  Vent > 20 kt
SIGMETs :   Divers  Orages  Givrage  Turbulence  Onde Orograph.  Cendres Volcan.






- Altitude de l'aérodrome : 27 ft
- Code IATA : PMI


LEPA - Palma de Mallorca

DERNIER METAR :
  • 252330Z 00000KT 9999 FEW018 11/10 Q1018 NOSIG

METARs EXPIRÉS :
  • 252300Z VRB01KT 9999 FEW018 10/10 Q1018 NOSIG
  • 252230Z 04003KT 010V070 9999 FEW018 11/11 Q1017 NOSIG
  • 252200Z 05004KT 020V080 9999 FEW018 12/11 Q1017 NOSIG
  • 252130Z 07006KT 9999 FEW018 12/11 Q1018 NOSIG
  • 252100Z 06003KT 9999 FEW018 12/11 Q1018 NOSIG

TAF TAF LEPA
Valide du 26 à 00h jusqu'au 27 à 00h UTC


252300Z 2600/2624 VRB03KT 9999 FEW020 TX16/2612Z TN08/2606Z
PROB30
TEMPO 2600/2610 3000 BR BKN008
PROB30
TEMPO 2603/2609 FEW025CB
BECMG 2610/2612 31008KT
BECMG 2619/2621 VRB03KT



MET'MAP, la Météo Aéronautique d'un coup d'oeil ! - Copyright ORBIFLY Décembre 2007 - Disclaimer

ORBIFLY MET'MAP TEAM :

Programmation & Développement : Alexandra Zaïnal
Sur une idée originale de : Baudouin d'Aumeries
Assistance à la programmation : Marc-Olivier Méhu
Soutien technique & logistique : Manuel Goepfert

Contact : metmap@orbifly.com




SOURCES & CREDITS :

   NOAA